sensor_id;sensor_type;location;lat;lon;timestamp;P1;durP1;ratioP1;P2;durP2;ratioP2
16440;SDS011;8330;-33.858;151.184;2024-02-21T00:24:53;5.22;;;1.23;;
16440;SDS011;8330;-33.858;151.184;2024-02-21T00:28:15;4.55;;;1.27;;
16440;SDS011;8330;-33.858;151.184;2024-02-21T00:31:22;4.57;;;1.30;;
16440;SDS011;8330;-33.858;151.184;2024-02-21T00:50:39;2.10;;;0.50;;
16440;SDS011;8330;-33.858;151.184;2024-02-21T00:53:24;3.63;;;0.60;;
16440;SDS011;8330;-33.858;151.184;2024-02-21T00:55:56;2.38;;;0.63;;
16440;SDS011;8330;-33.858;151.184;2024-02-21T00:59:03;3.05;;;0.85;;
16440;SDS011;8330;-33.858;151.184;2024-02-21T01:01:58;4.82;;;0.88;;
16440;SDS011;8330;-33.858;151.184;2024-02-21T01:04:37;1.73;;;0.82;;
16440;SDS011;8330;-33.858;151.184;2024-02-21T01:07:24;4.03;;;0.70;;
16440;SDS011;8330;-33.858;151.184;2024-02-21T01:09:59;3.15;;;0.77;;
16440;SDS011;8330;-33.858;151.184;2024-02-21T01:12:51;4.72;;;0.90;;
16440;SDS011;8330;-33.858;151.184;2024-02-21T01:15:30;1.65;;;0.70;;
16440;SDS011;8330;-33.858;151.184;2024-02-21T01:18:28;1.95;;;0.60;;
16440;SDS011;8330;-33.858;151.184;2024-02-21T01:21:18;1.60;;;0.70;;
16440;SDS011;8330;-33.858;151.184;2024-02-21T01:23:58;4.70;;;1.00;;
16440;SDS011;8330;-33.858;151.184;2024-02-21T01:26:36;5.55;;;1.10;;
16440;SDS011;8330;-33.858;151.184;2024-02-21T01:29:23;3.75;;;0.88;;
16440;SDS011;8330;-33.858;151.184;2024-02-21T01:39:02;3.95;;;1.30;;
16440;SDS011;8330;-33.858;151.184;2024-02-21T01:41:38;3.85;;;1.05;;
16440;SDS011;8330;-33.858;151.184;2024-02-21T01:44:27;3.03;;;1.08;;
16440;SDS011;8330;-33.858;151.184;2024-02-21T01:47:01;6.07;;;1.30;;
16440;SDS011;8330;-33.858;151.184;2024-02-21T01:50:01;4.95;;;1.70;;
16440;SDS011;8330;-33.858;151.184;2024-02-21T02:03:29;3.30;;;0.90;;
16440;SDS011;8330;-33.858;151.184;2024-02-21T02:56:57;2.40;;;0.80;;
16440;SDS011;8330;-33.858;151.184;2024-02-21T02:59:31;2.45;;;0.60;;
16440;SDS011;8330;-33.858;151.184;2024-02-21T03:03:08;3.25;;;0.80;;
16440;SDS011;8330;-33.858;151.184;2024-02-21T03:06:15;2.10;;;0.70;;
16440;SDS011;8330;-33.858;151.184;2024-02-21T03:16:39;2.85;;;0.90;;
16440;SDS011;8330;-33.858;151.184;2024-02-21T03:26:43;5.10;;;0.93;;
16440;SDS011;8330;-33.858;151.184;2024-02-21T03:29:51;3.10;;;0.70;;
16440;SDS011;8330;-33.858;151.184;2024-02-21T04:43:41;1.48;;;0.63;;
16440;SDS011;8330;-33.858;151.184;2024-02-21T04:49:27;1.13;;;0.47;;
16440;SDS011;8330;-33.858;151.184;2024-02-21T05:10:12;2.75;;;0.70;;
16440;SDS011;8330;-33.858;151.184;2024-02-21T05:13:33;2.15;;;0.68;;
16440;SDS011;8330;-33.858;151.184;2024-02-21T05:16:41;2.33;;;0.80;;
16440;SDS011;8330;-33.858;151.184;2024-02-21T05:19:47;3.42;;;1.13;;
16440;SDS011;8330;-33.858;151.184;2024-02-21T07:35:01;1.77;;;0.80;;
16440;SDS011;8330;-33.858;151.184;2024-02-21T08:12:49;2.70;;;1.30;;
16440;SDS011;8330;-33.858;151.184;2024-02-21T08:15:29;3.85;;;1.75;;
16440;SDS011;8330;-33.858;151.184;2024-02-21T08:18:08;3.83;;;1.70;;
16440;SDS011;8330;-33.858;151.184;2024-02-21T08:20:40;3.30;;;1.73;;
16440;SDS011;8330;-33.858;151.184;2024-02-21T08:23:23;4.82;;;1.23;;
16440;SDS011;8330;-33.858;151.184;2024-02-21T08:26:03;2.08;;;1.02;;
16440;SDS011;8330;-33.858;151.184;2024-02-21T08:28:42;4.60;;;1.00;;
16440;SDS011;8330;-33.858;151.184;2024-02-21T08:31:21;3.13;;;1.15;;
16440;SDS011;8330;-33.858;151.184;2024-02-21T08:34:09;2.60;;;1.13;;
16440;SDS011;8330;-33.858;151.184;2024-02-21T08:36:46;3.85;;;0.98;;
16440;SDS011;8330;-33.858;151.184;2024-02-21T08:39:20;3.03;;;1.08;;
16440;SDS011;8330;-33.858;151.184;2024-02-21T08:42:12;4.78;;;1.55;;
16440;SDS011;8330;-33.858;151.184;2024-02-21T08:45:09;5.05;;;1.85;;
16440;SDS011;8330;-33.858;151.184;2024-02-21T08:47:52;4.15;;;1.88;;
16440;SDS011;8330;-33.858;151.184;2024-02-21T08:50:27;7.60;;;1.70;;
16440;SDS011;8330;-33.858;151.184;2024-02-21T08:53:04;4.90;;;1.80;;
16440;SDS011;8330;-33.858;151.184;2024-02-21T08:55:37;5.45;;;1.77;;
16440;SDS011;8330;-33.858;151.184;2024-02-21T08:58:28;5.70;;;1.90;;
16440;SDS011;8330;-33.858;151.184;2024-02-21T09:01:14;4.45;;;1.42;;
16440;SDS011;8330;-33.858;151.184;2024-02-21T09:03:50;4.03;;;1.40;;
16440;SDS011;8330;-33.858;151.184;2024-02-21T09:06:30;2.83;;;1.02;;
16440;SDS011;8330;-33.858;151.184;2024-02-21T09:09:05;3.78;;;1.90;;
16440;SDS011;8330;-33.858;151.184;2024-02-21T09:11:48;5.10;;;1.60;;
16440;SDS011;8330;-33.858;151.184;2024-02-21T09:14:21;5.07;;;1.30;;
16440;SDS011;8330;-33.858;151.184;2024-02-21T09:16:56;3.95;;;1.25;;
16440;SDS011;8330;-33.858;151.184;2024-02-21T09:19:28;3.92;;;1.20;;
16440;SDS011;8330;-33.858;151.184;2024-02-21T09:22:05;4.35;;;1.20;;
16440;SDS011;8330;-33.858;151.184;2024-02-21T09:24:49;5.90;;;1.27;;
16440;SDS011;8330;-33.858;151.184;2024-02-21T09:27:21;3.00;;;0.93;;
16440;SDS011;8330;-33.858;151.184;2024-02-21T09:30:05;3.45;;;1.00;;
16440;SDS011;8330;-33.858;151.184;2024-02-21T09:32:45;3.25;;;0.90;;
16440;SDS011;8330;-33.858;151.184;2024-02-21T09:35:20;3.42;;;1.10;;
16440;SDS011;8330;-33.858;151.184;2024-02-21T09:37:54;2.88;;;1.20;;
16440;SDS011;8330;-33.858;151.184;2024-02-21T09:40:43;3.28;;;0.80;;
16440;SDS011;8330;-33.858;151.184;2024-02-21T09:43:24;3.42;;;1.00;;
16440;SDS011;8330;-33.858;151.184;2024-02-21T09:45:58;3.60;;;1.00;;
16440;SDS011;8330;-33.858;151.184;2024-02-21T09:48:54;4.78;;;1.08;;
16440;SDS011;8330;-33.858;151.184;2024-02-21T09:51:41;4.10;;;1.02;;
16440;SDS011;8330;-33.858;151.184;2024-02-21T09:54:29;3.08;;;1.05;;
16440;SDS011;8330;-33.858;151.184;2024-02-21T09:57:18;7.15;;;1.67;;
16440;SDS011;8330;-33.858;151.184;2024-02-21T10:00:16;3.90;;;1.15;;
16440;SDS011;8330;-33.858;151.184;2024-02-21T10:03:14;6.38;;;1.10;;
16440;SDS011;8330;-33.858;151.184;2024-02-21T10:06:12;4.47;;;1.42;;
16440;SDS011;8330;-33.858;151.184;2024-02-21T10:09:01;4.32;;;0.90;;
16440;SDS011;8330;-33.858;151.184;2024-02-21T10:11:38;4.18;;;1.15;;
16440;SDS011;8330;-33.858;151.184;2024-02-21T10:14:25;5.93;;;1.40;;
16440;SDS011;8330;-33.858;151.184;2024-02-21T10:17:02;5.20;;;1.30;;
16440;SDS011;8330;-33.858;151.184;2024-02-21T10:19:38;5.00;;;1.20;;
16440;SDS011;8330;-33.858;151.184;2024-02-21T10:22:41;5.22;;;1.40;;
16440;SDS011;8330;-33.858;151.184;2024-02-21T10:28:41;5.65;;;2.10;;
16440;SDS011;8330;-33.858;151.184;2024-02-21T10:31:48;5.18;;;2.10;;
16440;SDS011;8330;-33.858;151.184;2024-02-21T11:36:58;5.40;;;1.35;;
16440;SDS011;8330;-33.858;151.184;2024-02-21T11:39:35;4.78;;;1.30;;
16440;SDS011;8330;-33.858;151.184;2024-02-21T11:42:23;5.95;;;1.50;;
16440;SDS011;8330;-33.858;151.184;2024-02-21T11:45:03;3.38;;;1.40;;
16440;SDS011;8330;-33.858;151.184;2024-02-21T11:47:49;2.92;;;1.10;;
16440;SDS011;8330;-33.858;151.184;2024-02-21T11:50:34;3.53;;;1.15;;
16440;SDS011;8330;-33.858;151.184;2024-02-21T11:53:28;5.20;;;1.23;;
16440;SDS011;8330;-33.858;151.184;2024-02-21T12:02:23;6.65;;;1.15;;
16440;SDS011;8330;-33.858;151.184;2024-02-21T12:19:09;5.07;;;1.17;;
16440;SDS011;8330;-33.858;151.184;2024-02-21T12:21:55;4.03;;;1.10;;
16440;SDS011;8330;-33.858;151.184;2024-02-21T12:24:47;2.28;;;0.90;;
16440;SDS011;8330;-33.858;151.184;2024-02-21T12:27:36;2.28;;;0.80;;
16440;SDS011;8330;-33.858;151.184;2024-02-21T12:30:08;3.35;;;0.95;;
16440;SDS011;8330;-33.858;151.184;2024-02-21T12:32:54;3.97;;;0.98;;
16440;SDS011;8330;-33.858;151.184;2024-02-21T12:35:29;5.10;;;0.93;;
16440;SDS011;8330;-33.858;151.184;2024-02-21T12:38:02;3.03;;;0.82;;
16440;SDS011;8330;-33.858;151.184;2024-02-21T12:40:33;4.15;;;0.90;;
16440;SDS011;8330;-33.858;151.184;2024-02-21T12:43:04;4.75;;;1.15;;
16440;SDS011;8330;-33.858;151.184;2024-02-21T12:45:36;4.97;;;1.20;;
16440;SDS011;8330;-33.858;151.184;2024-02-21T12:48:07;3.95;;;0.95;;
16440;SDS011;8330;-33.858;151.184;2024-02-21T12:50:43;2.88;;;0.70;;
16440;SDS011;8330;-33.858;151.184;2024-02-21T12:53:21;3.15;;;0.70;;
16440;SDS011;8330;-33.858;151.184;2024-02-21T12:55:53;3.08;;;1.08;;
16440;SDS011;8330;-33.858;151.184;2024-02-21T12:58:24;3.95;;;0.95;;
16440;SDS011;8330;-33.858;151.184;2024-02-21T13:00:57;2.47;;;0.70;;
16440;SDS011;8330;-33.858;151.184;2024-02-21T13:03:32;2.17;;;0.85;;
16440;SDS011;8330;-33.858;151.184;2024-02-21T13:06:23;2.17;;;0.85;;
16440;SDS011;8330;-33.858;151.184;2024-02-21T13:08:54;4.57;;;0.90;;
16440;SDS011;8330;-33.858;151.184;2024-02-21T13:11:32;4.85;;;1.00;;
16440;SDS011;8330;-33.858;151.184;2024-02-21T13:14:04;2.63;;;0.90;;
16440;SDS011;8330;-33.858;151.184;2024-02-21T13:16:37;4.18;;;0.73;;
16440;SDS011;8330;-33.858;151.184;2024-02-21T13:19:08;3.95;;;0.80;;
16440;SDS011;8330;-33.858;151.184;2024-02-21T13:21:45;3.92;;;0.75;;
16440;SDS011;8330;-33.858;151.184;2024-02-21T13:24:19;1.92;;;0.60;;
16440;SDS011;8330;-33.858;151.184;2024-02-21T13:26:52;1.63;;;0.77;;
16440;SDS011;8330;-33.858;151.184;2024-02-21T13:29:24;2.88;;;0.70;;
16440;SDS011;8330;-33.858;151.184;2024-02-21T13:31:55;3.83;;;0.70;;
16440;SDS011;8330;-33.858;151.184;2024-02-21T13:34:28;3.25;;;0.90;;
16440;SDS011;8330;-33.858;151.184;2024-02-21T13:40:06;3.83;;;0.90;;
16440;SDS011;8330;-33.858;151.184;2024-02-21T13:42:39;3.70;;;0.73;;
16440;SDS011;8330;-33.858;151.184;2024-02-21T13:45:11;1.65;;;0.63;;
16440;SDS011;8330;-33.858;151.184;2024-02-21T13:47:45;2.28;;;0.70;;
16440;SDS011;8330;-33.858;151.184;2024-02-21T13:50:18;3.75;;;0.93;;
16440;SDS011;8330;-33.858;151.184;2024-02-21T13:52:55;2.80;;;0.80;;
16440;SDS011;8330;-33.858;151.184;2024-02-21T13:55:28;2.65;;;0.80;;
16440;SDS011;8330;-33.858;151.184;2024-02-21T13:58:00;2.30;;;0.75;;
16440;SDS011;8330;-33.858;151.184;2024-02-21T14:00:33;3.13;;;0.80;;
16440;SDS011;8330;-33.858;151.184;2024-02-21T14:03:04;7.38;;;0.85;;
16440;SDS011;8330;-33.858;151.184;2024-02-21T14:05:36;2.85;;;0.70;;
16440;SDS011;8330;-33.858;151.184;2024-02-21T14:08:11;3.60;;;1.00;;
16440;SDS011;8330;-33.858;151.184;2024-02-21T14:10:46;1.75;;;0.70;;
16440;SDS011;8330;-33.858;151.184;2024-02-21T14:13:19;2.38;;;0.65;;
16440;SDS011;8330;-33.858;151.184;2024-02-21T14:15:51;3.38;;;0.88;;
16440;SDS011;8330;-33.858;151.184;2024-02-21T14:18:22;2.45;;;0.82;;
16440;SDS011;8330;-33.858;151.184;2024-02-21T14:20:53;3.47;;;0.80;;
16440;SDS011;8330;-33.858;151.184;2024-02-21T14:23:28;4.00;;;1.00;;
16440;SDS011;8330;-33.858;151.184;2024-02-21T14:26:00;2.47;;;0.70;;
16440;SDS011;8330;-33.858;151.184;2024-02-21T14:28:33;5.00;;;0.95;;
16440;SDS011;8330;-33.858;151.184;2024-02-21T14:31:06;2.92;;;0.80;;
16440;SDS011;8330;-33.858;151.184;2024-02-21T14:33:41;2.00;;;0.77;;
16440;SDS011;8330;-33.858;151.184;2024-02-21T14:47:41;2.42;;;0.60;;
16440;SDS011;8330;-33.858;151.184;2024-02-21T15:17:29;3.00;;;0.70;;
16440;SDS011;8330;-33.858;151.184;2024-02-21T15:20:00;2.05;;;0.90;;
16440;SDS011;8330;-33.858;151.184;2024-02-21T15:22:33;5.15;;;0.95;;
16440;SDS011;8330;-33.858;151.184;2024-02-21T15:25:05;4.97;;;1.05;;
16440;SDS011;8330;-33.858;151.184;2024-02-21T15:27:41;2.38;;;0.82;;
16440;SDS011;8330;-33.858;151.184;2024-02-21T15:30:14;2.10;;;0.70;;
16440;SDS011;8330;-33.858;151.184;2024-02-21T15:32:48;3.10;;;0.90;;
16440;SDS011;8330;-33.858;151.184;2024-02-21T15:35:20;3.72;;;1.05;;
16440;SDS011;8330;-33.858;151.184;2024-02-21T15:37:51;4.60;;;0.82;;
16440;SDS011;8330;-33.858;151.184;2024-02-21T15:40:22;3.95;;;1.08;;
16440;SDS011;8330;-33.858;151.184;2024-02-21T15:42:53;2.70;;;0.70;;
16440;SDS011;8330;-33.858;151.184;2024-02-21T15:45:28;4.10;;;0.88;;
16440;SDS011;8330;-33.858;151.184;2024-02-21T15:48:02;2.97;;;0.73;;
16440;SDS011;8330;-33.858;151.184;2024-02-21T15:50:33;2.50;;;0.80;;
16440;SDS011;8330;-33.858;151.184;2024-02-21T15:53:06;3.75;;;0.85;;
16440;SDS011;8330;-33.858;151.184;2024-02-21T15:55:37;2.83;;;0.82;;
16440;SDS011;8330;-33.858;151.184;2024-02-21T15:58:09;2.53;;;0.90;;
16440;SDS011;8330;-33.858;151.184;2024-02-21T16:00:41;3.88;;;0.70;;
16440;SDS011;8330;-33.858;151.184;2024-02-21T16:03:17;1.73;;;0.82;;
16440;SDS011;8330;-33.858;151.184;2024-02-21T16:05:48;2.58;;;0.70;;
16440;SDS011;8330;-33.858;151.184;2024-02-21T16:08:20;1.17;;;0.60;;
16440;SDS011;8330;-33.858;151.184;2024-02-21T16:10:56;2.40;;;0.60;;
16440;SDS011;8330;-33.858;151.184;2024-02-21T16:13:29;1.60;;;0.73;;
16440;SDS011;8330;-33.858;151.184;2024-02-21T16:16:01;3.45;;;0.75;;
16440;SDS011;8330;-33.858;151.184;2024-02-21T16:18:36;6.00;;;0.90;;
16440;SDS011;8330;-33.858;151.184;2024-02-21T16:21:07;2.97;;;0.52;;
16440;SDS011;8330;-33.858;151.184;2024-02-21T16:23:40;3.67;;;0.50;;
16440;SDS011;8330;-33.858;151.184;2024-02-21T16:26:12;2.63;;;0.45;;
16440;SDS011;8330;-33.858;151.184;2024-02-21T16:28:43;5.55;;;0.68;;
16440;SDS011;8330;-33.858;151.184;2024-02-21T16:31:17;2.70;;;0.60;;
16440;SDS011;8330;-33.858;151.184;2024-02-21T16:33:51;2.40;;;0.70;;
16440;SDS011;8330;-33.858;151.184;2024-02-21T16:36:23;4.95;;;0.80;;
16440;SDS011;8330;-33.858;151.184;2024-02-21T16:38:55;1.48;;;0.65;;
16440;SDS011;8330;-33.858;151.184;2024-02-21T16:41:31;3.58;;;0.77;;
16440;SDS011;8330;-33.858;151.184;2024-02-21T16:44:02;3.63;;;1.00;;
16440;SDS011;8330;-33.858;151.184;2024-02-21T16:46:34;2.50;;;0.88;;
16440;SDS011;8330;-33.858;151.184;2024-02-21T16:49:10;6.43;;;1.30;;
16440;SDS011;8330;-33.858;151.184;2024-02-21T16:51:43;2.92;;;0.75;;
16440;SDS011;8330;-33.858;151.184;2024-02-21T16:54:16;3.60;;;0.70;;
16440;SDS011;8330;-33.858;151.184;2024-02-21T16:56:51;5.18;;;0.93;;
16440;SDS011;8330;-33.858;151.184;2024-02-21T16:59:22;1.80;;;0.80;;
16440;SDS011;8330;-33.858;151.184;2024-02-21T17:01:57;2.45;;;0.50;;
16440;SDS011;8330;-33.858;151.184;2024-02-21T17:04:32;2.38;;;0.63;;
16440;SDS011;8330;-33.858;151.184;2024-02-21T17:07:06;2.85;;;0.73;;
16440;SDS011;8330;-33.858;151.184;2024-02-21T17:09:38;3.20;;;0.80;;
16440;SDS011;8330;-33.858;151.184;2024-02-21T17:12:09;2.25;;;0.80;;
16440;SDS011;8330;-33.858;151.184;2024-02-21T17:14:41;4.20;;;0.82;;
16440;SDS011;8330;-33.858;151.184;2024-02-21T17:17:13;2.85;;;0.82;;
16440;SDS011;8330;-33.858;151.184;2024-02-21T17:19:47;2.70;;;0.75;;
16440;SDS011;8330;-33.858;151.184;2024-02-21T17:22:20;1.98;;;0.70;;
16440;SDS011;8330;-33.858;151.184;2024-02-21T17:24:53;3.63;;;0.88;;
16440;SDS011;8330;-33.858;151.184;2024-02-21T17:27:24;3.08;;;0.95;;
16440;SDS011;8330;-33.858;151.184;2024-02-21T17:29:57;2.75;;;1.00;;
16440;SDS011;8330;-33.858;151.184;2024-02-21T17:32:30;2.05;;;0.77;;
16440;SDS011;8330;-33.858;151.184;2024-02-21T17:35:06;3.85;;;0.80;;
16440;SDS011;8330;-33.858;151.184;2024-02-21T17:37:38;1.13;;;0.50;;
16440;SDS011;8330;-33.858;151.184;2024-02-21T17:40:09;2.10;;;0.70;;
16440;SDS011;8330;-33.858;151.184;2024-02-21T17:42:40;3.35;;;0.80;;
16440;SDS011;8330;-33.858;151.184;2024-02-21T17:45:12;2.88;;;0.77;;
16440;SDS011;8330;-33.858;151.184;2024-02-21T17:47:43;3.20;;;0.80;;
16440;SDS011;8330;-33.858;151.184;2024-02-21T17:50:19;4.90;;;0.77;;
16440;SDS011;8330;-33.858;151.184;2024-02-21T17:52:51;4.25;;;1.02;;
16440;SDS011;8330;-33.858;151.184;2024-02-21T17:55:22;2.97;;;0.73;;
16440;SDS011;8330;-33.858;151.184;2024-02-21T17:57:54;1.85;;;0.80;;
16440;SDS011;8330;-33.858;151.184;2024-02-21T18:00:26;2.75;;;0.90;;
16440;SDS011;8330;-33.858;151.184;2024-02-21T18:02:58;4.78;;;1.13;;
16440;SDS011;8330;-33.858;151.184;2024-02-21T18:05:34;1.95;;;0.75;;
16440;SDS011;8330;-33.858;151.184;2024-02-21T18:08:06;3.50;;;1.00;;
16440;SDS011;8330;-33.858;151.184;2024-02-21T18:10:39;2.72;;;0.70;;
16440;SDS011;8330;-33.858;151.184;2024-02-21T18:13:12;3.08;;;0.95;;
16440;SDS011;8330;-33.858;151.184;2024-02-21T18:15:44;2.85;;;1.30;;
16440;SDS011;8330;-33.858;151.184;2024-02-21T18:18:15;2.50;;;0.90;;
16440;SDS011;8330;-33.858;151.184;2024-02-21T18:20:50;3.50;;;1.10;;
16440;SDS011;8330;-33.858;151.184;2024-02-21T18:23:21;2.15;;;0.88;;
16440;SDS011;8330;-33.858;151.184;2024-02-21T18:25:55;2.67;;;0.90;;
16440;SDS011;8330;-33.858;151.184;2024-02-21T18:28:27;3.20;;;0.90;;
16440;SDS011;8330;-33.858;151.184;2024-02-21T18:31:14;2.35;;;0.95;;
16440;SDS011;8330;-33.858;151.184;2024-02-21T18:33:45;2.88;;;1.13;;
16440;SDS011;8330;-33.858;151.184;2024-02-21T18:36:20;2.85;;;0.88;;
16440;SDS011;8330;-33.858;151.184;2024-02-21T18:38:54;2.53;;;0.80;;
16440;SDS011;8330;-33.858;151.184;2024-02-21T18:41:28;3.88;;;1.00;;
16440;SDS011;8330;-33.858;151.184;2024-02-21T18:44:01;3.45;;;0.93;;
16440;SDS011;8330;-33.858;151.184;2024-02-21T18:46:32;3.70;;;0.90;;
16440;SDS011;8330;-33.858;151.184;2024-02-21T18:49:06;2.92;;;0.90;;
16440;SDS011;8330;-33.858;151.184;2024-02-21T18:51:41;4.13;;;0.85;;
16440;SDS011;8330;-33.858;151.184;2024-02-21T18:54:12;4.13;;;1.05;;
16440;SDS011;8330;-33.858;151.184;2024-02-21T18:56:44;2.97;;;1.00;;
16440;SDS011;8330;-33.858;151.184;2024-02-21T18:59:17;1.70;;;0.98;;
16440;SDS011;8330;-33.858;151.184;2024-02-21T19:01:51;7.47;;;1.10;;
16440;SDS011;8330;-33.858;151.184;2024-02-21T19:04:23;4.88;;;1.10;;
16440;SDS011;8330;-33.858;151.184;2024-02-21T19:06:57;4.55;;;0.98;;
16440;SDS011;8330;-33.858;151.184;2024-02-21T19:09:31;1.80;;;0.82;;
16440;SDS011;8330;-33.858;151.184;2024-02-21T19:12:03;3.33;;;1.10;;
16440;SDS011;8330;-33.858;151.184;2024-02-21T19:14:34;2.30;;;0.80;;
16440;SDS011;8330;-33.858;151.184;2024-02-21T19:17:07;3.42;;;0.90;;
16440;SDS011;8330;-33.858;151.184;2024-02-21T19:19:39;1.92;;;0.85;;
16440;SDS011;8330;-33.858;151.184;2024-02-21T19:22:12;0.95;;;0.70;;
16440;SDS011;8330;-33.858;151.184;2024-02-21T19:24:45;3.00;;;0.93;;
16440;SDS011;8330;-33.858;151.184;2024-02-21T19:27:17;5.60;;;0.70;;
16440;SDS011;8330;-33.858;151.184;2024-02-21T19:29:49;3.40;;;1.05;;
16440;SDS011;8330;-33.858;151.184;2024-02-21T19:32:21;2.22;;;0.80;;
16440;SDS011;8330;-33.858;151.184;2024-02-21T19:34:52;3.03;;;0.90;;
16440;SDS011;8330;-33.858;151.184;2024-02-21T19:37:26;2.92;;;0.90;;
16440;SDS011;8330;-33.858;151.184;2024-02-21T19:39:57;2.80;;;0.80;;
16440;SDS011;8330;-33.858;151.184;2024-02-21T19:42:30;5.28;;;1.02;;
16440;SDS011;8330;-33.858;151.184;2024-02-21T19:45:02;2.55;;;0.90;;
16440;SDS011;8330;-33.858;151.184;2024-02-21T19:47:36;2.92;;;0.90;;
16440;SDS011;8330;-33.858;151.184;2024-02-21T19:50:09;3.83;;;1.30;;
16440;SDS011;8330;-33.858;151.184;2024-02-21T19:52:49;3.25;;;1.05;;
16440;SDS011;8330;-33.858;151.184;2024-02-21T19:55:23;3.50;;;1.00;;
16440;SDS011;8330;-33.858;151.184;2024-02-21T19:57:54;2.08;;;0.90;;
16440;SDS011;8330;-33.858;151.184;2024-02-21T20:00:26;3.70;;;1.08;;
16440;SDS011;8330;-33.858;151.184;2024-02-21T20:03:01;3.95;;;1.10;;
16440;SDS011;8330;-33.858;151.184;2024-02-21T20:05:35;3.28;;;0.98;;
16440;SDS011;8330;-33.858;151.184;2024-02-21T20:08:16;3.47;;;1.20;;
16440;SDS011;8330;-33.858;151.184;2024-02-21T20:10:50;4.97;;;1.20;;
16440;SDS011;8330;-33.858;151.184;2024-02-21T20:13:22;4.78;;;1.45;;
16440;SDS011;8330;-33.858;151.184;2024-02-21T20:15:52;4.40;;;1.40;;
16440;SDS011;8330;-33.858;151.184;2024-02-21T20:18:23;4.85;;;1.30;;
16440;SDS011;8330;-33.858;151.184;2024-02-21T20:20:56;3.95;;;1.33;;
16440;SDS011;8330;-33.858;151.184;2024-02-21T20:23:31;4.55;;;1.80;;
16440;SDS011;8330;-33.858;151.184;2024-02-21T20:26:06;6.32;;;1.83;;
16440;SDS011;8330;-33.858;151.184;2024-02-21T20:28:39;6.22;;;2.00;;
16440;SDS011;8330;-33.858;151.184;2024-02-21T20:31:10;7.72;;;2.05;;
16440;SDS011;8330;-33.858;151.184;2024-02-21T20:33:46;5.15;;;2.28;;
16440;SDS011;8330;-33.858;151.184;2024-02-21T20:36:18;4.63;;;2.08;;
16440;SDS011;8330;-33.858;151.184;2024-02-21T20:38:51;4.22;;;2.15;;
16440;SDS011;8330;-33.858;151.184;2024-02-21T20:41:23;5.30;;;2.00;;
16440;SDS011;8330;-33.858;151.184;2024-02-21T20:43:55;5.68;;;2.00;;
16440;SDS011;8330;-33.858;151.184;2024-02-21T20:46:29;4.38;;;2.13;;
16440;SDS011;8330;-33.858;151.184;2024-02-21T20:49:02;5.45;;;2.10;;
16440;SDS011;8330;-33.858;151.184;2024-02-21T20:51:34;5.53;;;2.17;;
16440;SDS011;8330;-33.858;151.184;2024-02-21T20:54:14;4.88;;;2.00;;
16440;SDS011;8330;-33.858;151.184;2024-02-21T20:56:47;5.18;;;2.13;;
16440;SDS011;8330;-33.858;151.184;2024-02-21T20:59:21;5.10;;;2.20;;
16440;SDS011;8330;-33.858;151.184;2024-02-21T21:01:53;5.15;;;2.28;;
16440;SDS011;8330;-33.858;151.184;2024-02-21T21:04:24;5.97;;;2.60;;
16440;SDS011;8330;-33.858;151.184;2024-02-21T21:06:56;4.97;;;2.58;;
16440;SDS011;8330;-33.858;151.184;2024-02-21T21:09:35;6.30;;;2.45;;
16440;SDS011;8330;-33.858;151.184;2024-02-21T21:12:08;9.27;;;3.03;;
16440;SDS011;8330;-33.858;151.184;2024-02-21T21:14:40;6.38;;;2.72;;
16440;SDS011;8330;-33.858;151.184;2024-02-21T21:17:14;6.55;;;2.78;;
16440;SDS011;8330;-33.858;151.184;2024-02-21T21:19:58;6.40;;;2.92;;
16440;SDS011;8330;-33.858;151.184;2024-02-21T21:22:37;5.22;;;2.35;;
16440;SDS011;8330;-33.858;151.184;2024-02-21T21:25:30;4.78;;;2.17;;
16440;SDS011;8330;-33.858;151.184;2024-02-21T21:28:08;7.30;;;2.67;;
16440;SDS011;8330;-33.858;151.184;2024-02-21T21:30:42;4.10;;;2.38;;
16440;SDS011;8330;-33.858;151.184;2024-02-21T21:33:16;6.78;;;2.78;;
16440;SDS011;8330;-33.858;151.184;2024-02-21T21:35:48;5.90;;;2.35;;
16440;SDS011;8330;-33.858;151.184;2024-02-21T21:38:23;10.30;;;2.50;;
16440;SDS011;8330;-33.858;151.184;2024-02-21T21:40:57;7.13;;;2.83;;
16440;SDS011;8330;-33.858;151.184;2024-02-21T21:43:31;8.32;;;2.97;;
16440;SDS011;8330;-33.858;151.184;2024-02-21T21:46:09;7.50;;;2.92;;
16440;SDS011;8330;-33.858;151.184;2024-02-21T21:48:47;7.00;;;2.92;;
16440;SDS011;8330;-33.858;151.184;2024-02-21T21:51:18;6.60;;;2.80;;
16440;SDS011;8330;-33.858;151.184;2024-02-21T21:53:53;6.38;;;2.63;;
16440;SDS011;8330;-33.858;151.184;2024-02-21T21:59:31;7.80;;;2.78;;
16440;SDS011;8330;-33.858;151.184;2024-02-21T22:02:04;10.95;;;3.30;;
16440;SDS011;8330;-33.858;151.184;2024-02-21T22:04:37;9.27;;;3.25;;
16440;SDS011;8330;-33.858;151.184;2024-02-21T22:07:11;5.60;;;3.13;;
16440;SDS011;8330;-33.858;151.184;2024-02-21T22:09:46;7.40;;;2.92;;
16440;SDS011;8330;-33.858;151.184;2024-02-21T22:12:22;5.57;;;2.30;;
16440;SDS011;8330;-33.858;151.184;2024-02-21T22:14:56;7.50;;;3.20;;
16440;SDS011;8330;-33.858;151.184;2024-02-21T22:17:31;5.82;;;2.70;;
16440;SDS011;8330;-33.858;151.184;2024-02-21T22:20:06;11.95;;;2.55;;
16440;SDS011;8330;-33.858;151.184;2024-02-21T22:22:48;5.72;;;2.67;;
16440;SDS011;8330;-33.858;151.184;2024-02-21T22:25:20;5.70;;;2.22;;
16440;SDS011;8330;-33.858;151.184;2024-02-21T22:27:55;5.65;;;2.63;;
16440;SDS011;8330;-33.858;151.184;2024-02-21T22:30:29;6.25;;;2.10;;
16440;SDS011;8330;-33.858;151.184;2024-02-21T22:33:01;3.83;;;2.33;;
16440;SDS011;8330;-33.858;151.184;2024-02-21T22:35:35;4.40;;;2.17;;
16440;SDS011;8330;-33.858;151.184;2024-02-21T22:38:06;5.45;;;1.60;;
16440;SDS011;8330;-33.858;151.184;2024-02-21T22:40:41;3.53;;;1.30;;
16440;SDS011;8330;-33.858;151.184;2024-02-21T22:43:30;3.75;;;1.27;;
16440;SDS011;8330;-33.858;151.184;2024-02-21T22:46:05;4.30;;;1.25;;
16440;SDS011;8330;-33.858;151.184;2024-02-21T22:48:36;4.22;;;1.30;;
16440;SDS011;8330;-33.858;151.184;2024-02-21T22:51:08;4.38;;;1.10;;
16440;SDS011;8330;-33.858;151.184;2024-02-21T22:53:41;4.03;;;1.50;;
16440;SDS011;8330;-33.858;151.184;2024-02-21T22:56:13;3.28;;;1.13;;
16440;SDS011;8330;-33.858;151.184;2024-02-21T22:58:54;1.83;;;0.90;;
16440;SDS011;8330;-33.858;151.184;2024-02-21T23:01:30;2.65;;;0.90;;
16440;SDS011;8330;-33.858;151.184;2024-02-21T23:04:08;1.95;;;0.85;;
16440;SDS011;8330;-33.858;151.184;2024-02-21T23:06:40;3.65;;;0.80;;
16440;SDS011;8330;-33.858;151.184;2024-02-21T23:09:14;2.55;;;0.80;;
16440;SDS011;8330;-33.858;151.184;2024-02-21T23:11:50;2.97;;;0.90;;
16440;SDS011;8330;-33.858;151.184;2024-02-21T23:14:42;1.98;;;0.90;;
16440;SDS011;8330;-33.858;151.184;2024-02-21T23:17:16;2.97;;;0.95;;
16440;SDS011;8330;-33.858;151.184;2024-02-21T23:19:47;4.75;;;0.90;;
16440;SDS011;8330;-33.858;151.184;2024-02-21T23:22:20;3.15;;;1.20;;
16440;SDS011;8330;-33.858;151.184;2024-02-21T23:24:53;4.63;;;1.30;;
16440;SDS011;8330;-33.858;151.184;2024-02-21T23:27:30;3.83;;;1.42;;
16440;SDS011;8330;-33.858;151.184;2024-02-21T23:30:08;1.45;;;1.00;;
16440;SDS011;8330;-33.858;151.184;2024-02-21T23:32:41;4.43;;;1.60;;
16440;SDS011;8330;-33.858;151.184;2024-02-21T23:35:16;3.47;;;1.30;;
16440;SDS011;8330;-33.858;151.184;2024-02-21T23:37:51;2.58;;;1.20;;
16440;SDS011;8330;-33.858;151.184;2024-02-21T23:40:22;1.20;;;1.10;;
16440;SDS011;8330;-33.858;151.184;2024-02-21T23:42:53;1.27;;;1.13;;
16440;SDS011;8330;-33.858;151.184;2024-02-21T23:45:30;4.95;;;1.60;;
16440;SDS011;8330;-33.858;151.184;2024-02-21T23:48:11;3.58;;;1.55;;
16440;SDS011;8330;-33.858;151.184;2024-02-21T23:50:55;3.45;;;1.50;;
16440;SDS011;8330;-33.858;151.184;2024-02-21T23:53:39;4.03;;;1.73;;